sensor_id;sensor_type;location;lat;lon;timestamp;temperature;humidity
33564;DHT22;19894;48.452;11.494;2022-10-17T00:01:12;20.20;61.50
33564;DHT22;19894;48.452;11.494;2022-10-17T00:03:38;20.20;61.40
33564;DHT22;19894;48.452;11.494;2022-10-17T00:06:06;20.20;61.40
33564;DHT22;19894;48.452;11.494;2022-10-17T00:08:32;20.20;62.00
33564;DHT22;19894;48.452;11.494;2022-10-17T00:11:04;20.20;61.30
33564;DHT22;19894;48.452;11.494;2022-10-17T00:13:30;20.20;61.20
33564;DHT22;19894;48.452;11.494;2022-10-17T00:15:56;20.20;61.20
33564;DHT22;19894;48.452;11.494;2022-10-17T00:18:22;20.20;61.10
33564;DHT22;19894;48.452;11.494;2022-10-17T00:20:48;20.20;61.00
33564;DHT22;19894;48.452;11.494;2022-10-17T00:23:13;20.20;60.90
33564;DHT22;19894;48.452;11.494;2022-10-17T00:25:39;20.20;60.80
33564;DHT22;19894;48.452;11.494;2022-10-17T00:28:07;20.20;60.80
33564;DHT22;19894;48.452;11.494;2022-10-17T00:30:33;20.20;60.80
33564;DHT22;19894;48.452;11.494;2022-10-17T00:32:58;20.20;60.70
33564;DHT22;19894;48.452;11.494;2022-10-17T00:35:24;20.30;60.70
33564;DHT22;19894;48.452;11.494;2022-10-17T00:37:49;20.20;60.60
33564;DHT22;19894;48.452;11.494;2022-10-17T00:40:15;20.20;60.50
33564;DHT22;19894;48.452;11.494;2022-10-17T00:42:41;20.20;60.40
33564;DHT22;19894;48.452;11.494;2022-10-17T00:45:18;20.20;60.90
33564;DHT22;19894;48.452;11.494;2022-10-17T00:47:54;20.20;60.50
33564;DHT22;19894;48.452;11.494;2022-10-17T00:50:23;20.20;60.50
33564;DHT22;19894;48.452;11.494;2022-10-17T00:52:49;20.20;60.40
33564;DHT22;19894;48.452;11.494;2022-10-17T00:55:17;20.20;60.40
33564;DHT22;19894;48.452;11.494;2022-10-17T00:57:44;20.20;60.40
33564;DHT22;19894;48.452;11.494;2022-10-17T01:00:11;20.20;60.30
33564;DHT22;19894;48.452;11.494;2022-10-17T01:02:37;20.20;60.30
33564;DHT22;19894;48.452;11.494;2022-10-17T01:05:03;20.20;60.30
33564;DHT22;19894;48.452;11.494;2022-10-17T01:07:29;20.20;60.20
33564;DHT22;19894;48.452;11.494;2022-10-17T01:09:56;20.20;60.30
33564;DHT22;19894;48.452;11.494;2022-10-17T01:12:38;20.20;60.20
33564;DHT22;19894;48.452;11.494;2022-10-17T01:15:11;20.20;60.30
33564;DHT22;19894;48.452;11.494;2022-10-17T01:23:23;20.20;59.90
33564;DHT22;19894;48.452;11.494;2022-10-17T01:31:34;20.20;59.60
33564;DHT22;19894;48.452;11.494;2022-10-17T01:34:07;20.20;59.40
33564;DHT22;19894;48.452;11.494;2022-10-17T01:41:48;20.20;59.80
33564;DHT22;19894;48.452;11.494;2022-10-17T01:44:27;20.20;59.20
33564;DHT22;19894;48.452;11.494;2022-10-17T01:47:05;20.20;59.20
33564;DHT22;19894;48.452;11.494;2022-10-17T01:49:34;20.20;59.30
33564;DHT22;19894;48.452;11.494;2022-10-17T01:52:20;20.20;59.40
33564;DHT22;19894;48.452;11.494;2022-10-17T01:57:41;20.20;59.50
33564;DHT22;19894;48.452;11.494;2022-10-17T02:00:12;20.20;59.40
33564;DHT22;19894;48.452;11.494;2022-10-17T02:02:40;20.20;59.50
33564;DHT22;19894;48.452;11.494;2022-10-17T02:05:08;20.20;59.40
33564;DHT22;19894;48.452;11.494;2022-10-17T02:07:34;20.20;59.50
33564;DHT22;19894;48.452;11.494;2022-10-17T02:09:59;20.20;59.50
33564;DHT22;19894;48.452;11.494;2022-10-17T02:15:38;20.10;59.30
33564;DHT22;19894;48.452;11.494;2022-10-17T02:18:22;20.20;59.30
33564;DHT22;19894;48.452;11.494;2022-10-17T02:20:58;20.20;59.50
33564;DHT22;19894;48.452;11.494;2022-10-17T02:26:10;20.10;59.30
33564;DHT22;19894;48.452;11.494;2022-10-17T02:31:25;20.20;59.00
33564;DHT22;19894;48.452;11.494;2022-10-17T02:34:01;20.20;58.90
33564;DHT22;19894;48.452;11.494;2022-10-17T02:36:38;20.20;58.70
33564;DHT22;19894;48.452;11.494;2022-10-17T02:39:05;20.20;58.70
33564;DHT22;19894;48.452;11.494;2022-10-17T02:41:32;20.20;58.60
33564;DHT22;19894;48.452;11.494;2022-10-17T02:43:58;20.20;58.50
33564;DHT22;19894;48.452;11.494;2022-10-17T02:46:26;20.20;58.40
33564;DHT22;19894;48.452;11.494;2022-10-17T02:49:04;20.20;58.40
33564;DHT22;19894;48.452;11.494;2022-10-17T02:51:42;20.20;58.30
33564;DHT22;19894;48.452;11.494;2022-10-17T02:54:44;20.20;58.20
33564;DHT22;19894;48.452;11.494;2022-10-17T02:59:37;20.20;58.50
33564;DHT22;19894;48.452;11.494;2022-10-17T03:02:06;20.20;58.50
33564;DHT22;19894;48.452;11.494;2022-10-17T03:04:32;20.20;58.60
33564;DHT22;19894;48.452;11.494;2022-10-17T03:06:58;20.20;58.70
33564;DHT22;19894;48.452;11.494;2022-10-17T03:09:24;20.20;58.70
33564;DHT22;19894;48.452;11.494;2022-10-17T03:11:49;20.10;58.60
33564;DHT22;19894;48.452;11.494;2022-10-17T03:14:15;20.10;58.50
33564;DHT22;19894;48.452;11.494;2022-10-17T03:16:41;20.10;58.50
33564;DHT22;19894;48.452;11.494;2022-10-17T03:19:07;20.10;58.60
33564;DHT22;19894;48.452;11.494;2022-10-17T03:21:33;20.10;58.40
33564;DHT22;19894;48.452;11.494;2022-10-17T03:24:01;20.20;58.60
33564;DHT22;19894;48.452;11.494;2022-10-17T03:26:26;20.10;58.20
33564;DHT22;19894;48.452;11.494;2022-10-17T03:28:53;20.20;58.60
33564;DHT22;19894;48.452;11.494;2022-10-17T03:31:19;20.10;58.40
33564;DHT22;19894;48.452;11.494;2022-10-17T03:33:45;20.10;58.30
33564;DHT22;19894;48.452;11.494;2022-10-17T03:36:14;20.10;58.30
33564;DHT22;19894;48.452;11.494;2022-10-17T03:38:40;20.10;58.10
33564;DHT22;19894;48.452;11.494;2022-10-17T03:41:06;20.10;57.80
33564;DHT22;19894;48.452;11.494;2022-10-17T03:43:32;20.10;57.80
33564;DHT22;19894;48.452;11.494;2022-10-17T03:45:59;20.20;57.70
33564;DHT22;19894;48.452;11.494;2022-10-17T03:48:26;20.10;57.50
33564;DHT22;19894;48.452;11.494;2022-10-17T03:50:51;20.20;57.60
33564;DHT22;19894;48.452;11.494;2022-10-17T03:53:22;20.20;57.50
33564;DHT22;19894;48.452;11.494;2022-10-17T03:55:47;20.20;57.60
33564;DHT22;19894;48.452;11.494;2022-10-17T03:58:13;20.20;57.50
33564;DHT22;19894;48.452;11.494;2022-10-17T04:00:38;20.20;57.40
33564;DHT22;19894;48.452;11.494;2022-10-17T04:03:04;20.20;57.50
33564;DHT22;19894;48.452;11.494;2022-10-17T04:05:30;20.10;57.70
33564;DHT22;19894;48.452;11.494;2022-10-17T04:07:55;20.10;57.90
33564;DHT22;19894;48.452;11.494;2022-10-17T04:10:21;20.20;58.00
33564;DHT22;19894;48.452;11.494;2022-10-17T04:12:46;20.10;57.90
33564;DHT22;19894;48.452;11.494;2022-10-17T04:15:12;20.10;58.00
33564;DHT22;19894;48.452;11.494;2022-10-17T04:17:37;20.10;57.90
33564;DHT22;19894;48.452;11.494;2022-10-17T04:20:03;20.10;57.80
33564;DHT22;19894;48.452;11.494;2022-10-17T04:22:29;20.10;57.80
33564;DHT22;19894;48.452;11.494;2022-10-17T04:24:55;20.10;57.70
33564;DHT22;19894;48.452;11.494;2022-10-17T04:27:20;20.10;57.70
33564;DHT22;19894;48.452;11.494;2022-10-17T04:29:46;20.10;57.70
33564;DHT22;19894;48.452;11.494;2022-10-17T04:32:11;20.10;57.70
33564;DHT22;19894;48.452;11.494;2022-10-17T04:34:37;20.10;57.80
33564;DHT22;19894;48.452;11.494;2022-10-17T04:37:02;20.10;57.60
33564;DHT22;19894;48.452;11.494;2022-10-17T04:39:28;20.10;57.70
33564;DHT22;19894;48.452;11.494;2022-10-17T04:41:54;20.10;57.60
33564;DHT22;19894;48.452;11.494;2022-10-17T04:44:21;20.10;57.40
33564;DHT22;19894;48.452;11.494;2022-10-17T04:46:47;20.10;57.00
33564;DHT22;19894;48.452;11.494;2022-10-17T04:49:12;20.10;57.20
33564;DHT22;19894;48.452;11.494;2022-10-17T04:51:38;20.20;56.90
33564;DHT22;19894;48.452;11.494;2022-10-17T04:54:04;20.10;56.80
33564;DHT22;19894;48.452;11.494;2022-10-17T04:56:29;20.20;56.50
33564;DHT22;19894;48.452;11.494;2022-10-17T04:58:57;20.10;56.50
33564;DHT22;19894;48.452;11.494;2022-10-17T05:01:24;20.10;56.30
33564;DHT22;19894;48.452;11.494;2022-10-17T05:03:50;20.20;56.40
33564;DHT22;19894;48.452;11.494;2022-10-17T05:06:18;20.20;56.40
33564;DHT22;19894;48.452;11.494;2022-10-17T05:08:44;20.10;56.50
33564;DHT22;19894;48.452;11.494;2022-10-17T05:11:36;20.20;56.50
33564;DHT22;19894;48.452;11.494;2022-10-17T05:14:02;20.20;56.40
33564;DHT22;19894;48.452;11.494;2022-10-17T05:16:28;20.10;56.30
33564;DHT22;19894;48.452;11.494;2022-10-17T05:18:55;20.20;56.60
33564;DHT22;19894;48.452;11.494;2022-10-17T05:21:23;20.20;56.30
33564;DHT22;19894;48.452;11.494;2022-10-17T05:23:49;20.10;56.60
33564;DHT22;19894;48.452;11.494;2022-10-17T05:26:15;20.10;56.90
33564;DHT22;19894;48.452;11.494;2022-10-17T05:28:40;20.10;57.00
33564;DHT22;19894;48.452;11.494;2022-10-17T05:31:07;20.10;56.80
33564;DHT22;19894;48.452;11.494;2022-10-17T05:33:34;20.10;56.90
33564;DHT22;19894;48.452;11.494;2022-10-17T05:36:00;20.10;57.00
33564;DHT22;19894;48.452;11.494;2022-10-17T05:38:26;20.10;56.90
33564;DHT22;19894;48.452;11.494;2022-10-17T05:40:59;20.10;56.90
33564;DHT22;19894;48.452;11.494;2022-10-17T05:43:26;20.10;56.90
33564;DHT22;19894;48.452;11.494;2022-10-17T05:45:52;20.10;56.90
33564;DHT22;19894;48.452;11.494;2022-10-17T05:48:18;20.10;56.80
33564;DHT22;19894;48.452;11.494;2022-10-17T05:50:44;20.10;56.80
33564;DHT22;19894;48.452;11.494;2022-10-17T05:53:09;20.10;56.80
33564;DHT22;19894;48.452;11.494;2022-10-17T05:55:35;20.10;56.90
33564;DHT22;19894;48.452;11.494;2022-10-17T05:58:01;20.10;56.50
33564;DHT22;19894;48.452;11.494;2022-10-17T06:00:26;20.10;56.60
33564;DHT22;19894;48.452;11.494;2022-10-17T06:02:52;20.10;56.80
33564;DHT22;19894;48.452;11.494;2022-10-17T06:05:18;20.10;56.70
33564;DHT22;19894;48.452;11.494;2022-10-17T06:07:44;20.10;56.40
33564;DHT22;19894;48.452;11.494;2022-10-17T06:10:10;20.10;56.50
33564;DHT22;19894;48.452;11.494;2022-10-17T06:12:43;20.10;56.10
33564;DHT22;19894;48.452;11.494;2022-10-17T06:15:09;20.10;55.90
33564;DHT22;19894;48.452;11.494;2022-10-17T06:17:35;20.10;55.80
33564;DHT22;19894;48.452;11.494;2022-10-17T06:20:01;20.10;55.70
33564;DHT22;19894;48.452;11.494;2022-10-17T06:22:27;20.10;55.80
33564;DHT22;19894;48.452;11.494;2022-10-17T06:24:52;20.10;55.80
33564;DHT22;19894;48.452;11.494;2022-10-17T06:27:18;20.10;55.80
33564;DHT22;19894;48.452;11.494;2022-10-17T06:29:45;20.10;56.10
33564;DHT22;19894;48.452;11.494;2022-10-17T06:32:11;20.10;56.20
33564;DHT22;19894;48.452;11.494;2022-10-17T06:34:36;20.10;56.30
33564;DHT22;19894;48.452;11.494;2022-10-17T06:37:02;20.10;56.40
33564;DHT22;19894;48.452;11.494;2022-10-17T06:39:27;20.10;56.50
33564;DHT22;19894;48.452;11.494;2022-10-17T06:41:59;20.10;56.30
33564;DHT22;19894;48.452;11.494;2022-10-17T06:44:24;20.10;56.40
33564;DHT22;19894;48.452;11.494;2022-10-17T06:46:55;20.10;56.50
33564;DHT22;19894;48.452;11.494;2022-10-17T06:49:21;20.10;56.30
33564;DHT22;19894;48.452;11.494;2022-10-17T06:51:47;20.10;56.40
33564;DHT22;19894;48.452;11.494;2022-10-17T06:54:12;20.10;56.50
33564;DHT22;19894;48.452;11.494;2022-10-17T06:56:38;20.00;56.30
33564;DHT22;19894;48.452;11.494;2022-10-17T06:59:03;20.10;56.30
33564;DHT22;19894;48.452;11.494;2022-10-17T07:01:30;20.10;56.60
33564;DHT22;19894;48.452;11.494;2022-10-17T07:03:56;20.10;56.10
33564;DHT22;19894;48.452;11.494;2022-10-17T07:06:21;20.10;56.20
33564;DHT22;19894;48.452;11.494;2022-10-17T07:08:49;20.10;56.10
33564;DHT22;19894;48.452;11.494;2022-10-17T07:11:17;20.10;56.20
33564;DHT22;19894;48.452;11.494;2022-10-17T07:13:43;20.10;56.10
33564;DHT22;19894;48.452;11.494;2022-10-17T07:16:10;20.10;55.80
33564;DHT22;19894;48.452;11.494;2022-10-17T07:18:36;20.10;55.70
33564;DHT22;19894;48.452;11.494;2022-10-17T07:21:02;20.10;55.60
33564;DHT22;19894;48.452;11.494;2022-10-17T07:23:28;20.10;55.60
33564;DHT22;19894;48.452;11.494;2022-10-17T07:26:05;20.10;55.60
33564;DHT22;19894;48.452;11.494;2022-10-17T07:28:33;20.10;55.80
33564;DHT22;19894;48.452;11.494;2022-10-17T07:31:07;20.10;55.70
33564;DHT22;19894;48.452;11.494;2022-10-17T07:33:33;20.10;55.80
33564;DHT22;19894;48.452;11.494;2022-10-17T07:36:00;20.10;56.00
33564;DHT22;19894;48.452;11.494;2022-10-17T07:38:26;20.10;56.00
33564;DHT22;19894;48.452;11.494;2022-10-17T07:40:53;20.10;56.10
33564;DHT22;19894;48.452;11.494;2022-10-17T07:43:19;20.10;56.20
33564;DHT22;19894;48.452;11.494;2022-10-17T07:45:44;20.10;56.20
33564;DHT22;19894;48.452;11.494;2022-10-17T07:48:10;20.10;56.40
33564;DHT22;19894;48.452;11.494;2022-10-17T07:50:36;20.10;56.30
33564;DHT22;19894;48.452;11.494;2022-10-17T07:53:01;20.10;56.40
33564;DHT22;19894;48.452;11.494;2022-10-17T07:55:27;20.10;56.40
33564;DHT22;19894;48.452;11.494;2022-10-17T07:57:52;20.10;56.40
33564;DHT22;19894;48.452;11.494;2022-10-17T08:00:18;20.10;56.50
33564;DHT22;19894;48.452;11.494;2022-10-17T08:02:43;20.10;56.60
33564;DHT22;19894;48.452;11.494;2022-10-17T08:05:09;20.10;56.60
33564;DHT22;19894;48.452;11.494;2022-10-17T08:07:35;20.10;56.60
33564;DHT22;19894;48.452;11.494;2022-10-17T08:10:00;20.10;56.50
33564;DHT22;19894;48.452;11.494;2022-10-17T08:12:26;20.10;57.10
33564;DHT22;19894;48.452;11.494;2022-10-17T08:14:51;20.10;56.60
33564;DHT22;19894;48.452;11.494;2022-10-17T08:17:17;20.10;56.60
33564;DHT22;19894;48.452;11.494;2022-10-17T08:19:42;20.10;56.60
33564;DHT22;19894;48.452;11.494;2022-10-17T08:22:08;20.10;56.70
33564;DHT22;19894;48.452;11.494;2022-10-17T08:24:34;20.10;56.80
33564;DHT22;19894;48.452;11.494;2022-10-17T08:27:00;20.10;56.90
33564;DHT22;19894;48.452;11.494;2022-10-17T08:29:25;20.10;57.00
33564;DHT22;19894;48.452;11.494;2022-10-17T08:31:51;20.10;57.00
33564;DHT22;19894;48.452;11.494;2022-10-17T08:34:17;20.10;57.10
33564;DHT22;19894;48.452;11.494;2022-10-17T08:36:42;20.20;57.20
33564;DHT22;19894;48.452;11.494;2022-10-17T08:39:08;20.20;57.20
33564;DHT22;19894;48.452;11.494;2022-10-17T08:44:46;20.10;57.30
33564;DHT22;19894;48.452;11.494;2022-10-17T08:47:20;20.10;57.40
33564;DHT22;19894;48.452;11.494;2022-10-17T08:49:47;20.10;57.40
33564;DHT22;19894;48.452;11.494;2022-10-17T08:54:51;20.10;57.50
33564;DHT22;19894;48.452;11.494;2022-10-17T08:57:16;20.10;57.60
33564;DHT22;19894;48.452;11.494;2022-10-17T08:59:43;20.10;57.70
33564;DHT22;19894;48.452;11.494;2022-10-17T09:10:55;20.10;57.90
33564;DHT22;19894;48.452;11.494;2022-10-17T09:19:03;20.10;58.20
33564;DHT22;19894;48.452;11.494;2022-10-17T09:21:48;20.10;58.10
33564;DHT22;19894;48.452;11.494;2022-10-17T09:24:45;20.10;58.30
33564;DHT22;19894;48.452;11.494;2022-10-17T09:27:24;20.10;58.30
33564;DHT22;19894;48.452;11.494;2022-10-17T09:29:56;20.20;58.50
33564;DHT22;19894;48.452;11.494;2022-10-17T09:32:24;20.10;58.50
33564;DHT22;19894;48.452;11.494;2022-10-17T09:34:51;20.20;58.60
33564;DHT22;19894;48.452;11.494;2022-10-17T09:37:17;20.20;58.60
33564;DHT22;19894;48.452;11.494;2022-10-17T09:39:44;20.20;58.60
33564;DHT22;19894;48.452;11.494;2022-10-17T09:42:13;20.20;58.70
33564;DHT22;19894;48.452;11.494;2022-10-17T09:44:56;20.20;58.60
33564;DHT22;19894;48.452;11.494;2022-10-17T09:50:29;20.20;58.70
33564;DHT22;19894;48.452;11.494;2022-10-17T09:52:56;20.20;58.70
33564;DHT22;19894;48.452;11.494;2022-10-17T09:55:42;20.20;58.70
33564;DHT22;19894;48.452;11.494;2022-10-17T09:58:09;20.10;58.70
33564;DHT22;19894;48.452;11.494;2022-10-17T10:00:38;20.20;58.80
33564;DHT22;19894;48.452;11.494;2022-10-17T10:03:19;20.20;58.90
33564;DHT22;19894;48.452;11.494;2022-10-17T10:06:08;20.20;59.00
33564;DHT22;19894;48.452;11.494;2022-10-17T10:08:54;20.20;59.00
33564;DHT22;19894;48.452;11.494;2022-10-17T10:11:24;20.10;59.00
33564;DHT22;19894;48.452;11.494;2022-10-17T10:13:50;20.10;59.10
33564;DHT22;19894;48.452;11.494;2022-10-17T10:16:22;20.20;59.30
33564;DHT22;19894;48.452;11.494;2022-10-17T10:18:54;20.10;59.40
33564;DHT22;19894;48.452;11.494;2022-10-17T10:21:25;20.20;59.60
33564;DHT22;19894;48.452;11.494;2022-10-17T10:26:45;20.20;59.80
33564;DHT22;19894;48.452;11.494;2022-10-17T10:29:32;20.10;59.90
33564;DHT22;19894;48.452;11.494;2022-10-17T10:32:28;20.20;60.30
33564;DHT22;19894;48.452;11.494;2022-10-17T10:35:07;20.20;60.30
33564;DHT22;19894;48.452;11.494;2022-10-17T10:37:42;20.20;60.40
33564;DHT22;19894;48.452;11.494;2022-10-17T10:40:16;20.20;60.50
33564;DHT22;19894;48.452;11.494;2022-10-17T10:42:46;20.20;60.50
33564;DHT22;19894;48.452;11.494;2022-10-17T10:45:23;20.20;60.50
33564;DHT22;19894;48.452;11.494;2022-10-17T10:47:58;20.20;61.10
33564;DHT22;19894;48.452;11.494;2022-10-17T10:50:45;20.30;60.70
33564;DHT22;19894;48.452;11.494;2022-10-17T10:56:07;20.20;60.60
33564;DHT22;19894;48.452;11.494;2022-10-17T11:04:35;20.20;60.30
33564;DHT22;19894;48.452;11.494;2022-10-17T11:07:13;20.20;60.50
33564;DHT22;19894;48.452;11.494;2022-10-17T11:09:52;20.20;60.30
33564;DHT22;19894;48.452;11.494;2022-10-17T11:12:39;20.20;60.40
33564;DHT22;19894;48.452;11.494;2022-10-17T11:20:33;20.20;60.50
33564;DHT22;19894;48.452;11.494;2022-10-17T11:23:16;20.20;61.10
33564;DHT22;19894;48.452;11.494;2022-10-17T11:25:46;20.20;60.60
33564;DHT22;19894;48.452;11.494;2022-10-17T11:28:18;20.20;60.80
33564;DHT22;19894;48.452;11.494;2022-10-17T11:33:13;20.20;60.90
33564;DHT22;19894;48.452;11.494;2022-10-17T11:35:43;20.20;61.10
33564;DHT22;19894;48.452;11.494;2022-10-17T11:38:53;20.20;61.20
33564;DHT22;19894;48.452;11.494;2022-10-17T11:44:04;20.20;61.30
33564;DHT22;19894;48.452;11.494;2022-10-17T11:46:33;20.20;61.40
33564;DHT22;19894;48.452;11.494;2022-10-17T11:49:19;20.20;61.50
33564;DHT22;19894;48.452;11.494;2022-10-17T11:51:50;20.30;61.50
33564;DHT22;19894;48.452;11.494;2022-10-17T12:03:12;20.30;61.60
33564;DHT22;19894;48.452;11.494;2022-10-17T12:05:49;20.20;61.60
33564;DHT22;19894;48.452;11.494;2022-10-17T12:13:59;20.20;61.40
33564;DHT22;19894;48.452;11.494;2022-10-17T12:21:25;20.20;61.50
33564;DHT22;19894;48.452;11.494;2022-10-17T12:23:52;20.20;61.40
33564;DHT22;19894;48.452;11.494;2022-10-17T12:26:26;20.20;61.60
33564;DHT22;19894;48.452;11.494;2022-10-17T12:28:52;20.20;61.60
33564;DHT22;19894;48.452;11.494;2022-10-17T12:33:51;20.20;61.80
33564;DHT22;19894;48.452;11.494;2022-10-17T12:38:44;20.20;62.20
33564;DHT22;19894;48.452;11.494;2022-10-17T12:41:10;20.20;62.30
33564;DHT22;19894;48.452;11.494;2022-10-17T12:46:08;20.20;62.50
33564;DHT22;19894;48.452;11.494;2022-10-17T12:51:11;20.20;62.30
33564;DHT22;19894;48.452;11.494;2022-10-17T12:53:42;20.20;62.50
33564;DHT22;19894;48.452;11.494;2022-10-17T12:56:21;20.30;62.60
33564;DHT22;19894;48.452;11.494;2022-10-17T12:58:55;20.30;62.40
33564;DHT22;19894;48.452;11.494;2022-10-17T13:01:33;20.20;62.50
33564;DHT22;19894;48.452;11.494;2022-10-17T13:04:01;20.30;62.60
33564;DHT22;19894;48.452;11.494;2022-10-17T13:06:32;20.30;63.10
33564;DHT22;19894;48.452;11.494;2022-10-17T13:09:12;20.20;62.40
33564;DHT22;19894;48.452;11.494;2022-10-17T13:11:41;20.20;62.30
33564;DHT22;19894;48.452;11.494;2022-10-17T13:14:12;20.20;62.30
33564;DHT22;19894;48.452;11.494;2022-10-17T13:16:51;20.20;62.20
33564;DHT22;19894;48.452;11.494;2022-10-17T13:19:20;20.30;62.30
33564;DHT22;19894;48.452;11.494;2022-10-17T13:24:38;20.20;62.00
33564;DHT22;19894;48.452;11.494;2022-10-17T13:27:20;20.20;62.10
33564;DHT22;19894;48.452;11.494;2022-10-17T13:29:46;20.20;62.10
33564;DHT22;19894;48.452;11.494;2022-10-17T13:32:12;20.20;62.10
33564;DHT22;19894;48.452;11.494;2022-10-17T13:34:37;20.20;62.00
33564;DHT22;19894;48.452;11.494;2022-10-17T13:37:06;20.20;62.10
33564;DHT22;19894;48.452;11.494;2022-10-17T13:39:43;20.20;62.10
33564;DHT22;19894;48.452;11.494;2022-10-17T13:42:26;20.20;62.30
33564;DHT22;19894;48.452;11.494;2022-10-17T13:44:53;20.20;62.30
33564;DHT22;19894;48.452;11.494;2022-10-17T13:47:24;20.20;62.30
33564;DHT22;19894;48.452;11.494;2022-10-17T13:49:51;20.20;62.30
33564;DHT22;19894;48.452;11.494;2022-10-17T13:52:20;20.20;62.30
33564;DHT22;19894;48.452;11.494;2022-10-17T13:54:48;20.30;62.30
33564;DHT22;19894;48.452;11.494;2022-10-17T13:57:28;20.20;62.20
33564;DHT22;19894;48.452;11.494;2022-10-17T13:59:59;20.20;62.20
33564;DHT22;19894;48.452;11.494;2022-10-17T14:02:28;20.30;62.20
33564;DHT22;19894;48.452;11.494;2022-10-17T14:05:11;20.20;62.20
33564;DHT22;19894;48.452;11.494;2022-10-17T14:07:55;20.30;62.30
33564;DHT22;19894;48.452;11.494;2022-10-17T14:10:29;20.20;62.30
33564;DHT22;19894;48.452;11.494;2022-10-17T14:12:55;20.30;62.30
33564;DHT22;19894;48.452;11.494;2022-10-17T14:15:30;20.30;62.30
33564;DHT22;19894;48.452;11.494;2022-10-17T14:18:01;20.30;62.40
33564;DHT22;19894;48.452;11.494;2022-10-17T14:20:27;20.20;62.50
33564;DHT22;19894;48.452;11.494;2022-10-17T14:22:58;20.20;62.60
33564;DHT22;19894;48.452;11.494;2022-10-17T14:25:38;20.30;62.50
33564;DHT22;19894;48.452;11.494;2022-10-17T14:30:47;20.30;62.40
33564;DHT22;19894;48.452;11.494;2022-10-17T14:33:28;20.20;62.40
33564;DHT22;19894;48.452;11.494;2022-10-17T14:35:56;20.20;62.50
33564;DHT22;19894;48.452;11.494;2022-10-17T14:38:23;20.30;62.80
33564;DHT22;19894;48.452;11.494;2022-10-17T14:41:01;20.20;62.70
33564;DHT22;19894;48.452;11.494;2022-10-17T14:43:29;20.30;62.70
33564;DHT22;19894;48.452;11.494;2022-10-17T14:45:57;20.20;62.90
33564;DHT22;19894;48.452;11.494;2022-10-17T14:48:23;20.20;63.00
33564;DHT22;19894;48.452;11.494;2022-10-17T14:51:14;20.20;63.60
33564;DHT22;19894;48.452;11.494;2022-10-17T14:53:41;20.30;63.90
33564;DHT22;19894;48.452;11.494;2022-10-17T14:56:23;20.20;64.40
33564;DHT22;19894;48.452;11.494;2022-10-17T14:58:48;20.20;64.10
33564;DHT22;19894;48.452;11.494;2022-10-17T15:01:14;20.20;64.20
33564;DHT22;19894;48.452;11.494;2022-10-17T15:03:40;20.30;64.30
33564;DHT22;19894;48.452;11.494;2022-10-17T15:06:20;20.20;64.10
33564;DHT22;19894;48.452;11.494;2022-10-17T15:08:47;20.30;64.40
33564;DHT22;19894;48.452;11.494;2022-10-17T15:11:12;20.30;64.40
33564;DHT22;19894;48.452;11.494;2022-10-17T15:13:38;20.30;64.50
33564;DHT22;19894;48.452;11.494;2022-10-17T15:16:16;20.30;64.50
33564;DHT22;19894;48.452;11.494;2022-10-17T15:18:42;20.30;64.70
33564;DHT22;19894;48.452;11.494;2022-10-17T15:21:12;20.30;64.70
33564;DHT22;19894;48.452;11.494;2022-10-17T15:23:38;20.30;64.40
33564;DHT22;19894;48.452;11.494;2022-10-17T15:26:18;20.30;64.50
33564;DHT22;19894;48.452;11.494;2022-10-17T15:28:44;20.30;64.50
33564;DHT22;19894;48.452;11.494;2022-10-17T15:31:11;20.30;64.40
33564;DHT22;19894;48.452;11.494;2022-10-17T15:33:37;20.20;64.30
33564;DHT22;19894;48.452;11.494;2022-10-17T15:36:03;20.20;64.50
33564;DHT22;19894;48.452;11.494;2022-10-17T15:38:29;20.20;64.70
33564;DHT22;19894;48.452;11.494;2022-10-17T15:40:55;20.20;64.60
33564;DHT22;19894;48.452;11.494;2022-10-17T15:43:20;20.20;64.60
33564;DHT22;19894;48.452;11.494;2022-10-17T15:45:46;20.30;64.70
33564;DHT22;19894;48.452;11.494;2022-10-17T15:48:19;20.30;64.80
33564;DHT22;19894;48.452;11.494;2022-10-17T15:50:47;20.20;64.60
33564;DHT22;19894;48.452;11.494;2022-10-17T15:53:13;20.20;64.90
33564;DHT22;19894;48.452;11.494;2022-10-17T15:55:39;20.30;65.20
33564;DHT22;19894;48.452;11.494;2022-10-17T15:58:05;20.20;65.20
33564;DHT22;19894;48.452;11.494;2022-10-17T16:00:30;20.20;65.20
33564;DHT22;19894;48.452;11.494;2022-10-17T16:02:56;20.30;65.20
33564;DHT22;19894;48.452;11.494;2022-10-17T16:05:24;20.30;65.40
33564;DHT22;19894;48.452;11.494;2022-10-17T16:07:51;20.30;65.30
33564;DHT22;19894;48.452;11.494;2022-10-17T16:10:16;20.30;65.30
33564;DHT22;19894;48.452;11.494;2022-10-17T16:12:42;20.30;65.20
33564;DHT22;19894;48.452;11.494;2022-10-17T16:15:14;20.30;65.10
33564;DHT22;19894;48.452;11.494;2022-10-17T16:17:40;20.30;65.20
33564;DHT22;19894;48.452;11.494;2022-10-17T16:20:06;20.30;65.00
33564;DHT22;19894;48.452;11.494;2022-10-17T16:22:33;20.30;65.10
33564;DHT22;19894;48.452;11.494;2022-10-17T16:25:02;20.30;65.00
33564;DHT22;19894;48.452;11.494;2022-10-17T16:27:32;20.30;64.90
33564;DHT22;19894;48.452;11.494;2022-10-17T16:29:58;20.30;64.70
33564;DHT22;19894;48.452;11.494;2022-10-17T16:32:23;20.30;65.30
33564;DHT22;19894;48.452;11.494;2022-10-17T16:34:49;20.30;64.60
33564;DHT22;19894;48.452;11.494;2022-10-17T16:37:14;20.30;64.70
33564;DHT22;19894;48.452;11.494;2022-10-17T16:39:40;20.30;64.60
33564;DHT22;19894;48.452;11.494;2022-10-17T16:42:05;20.30;64.50
33564;DHT22;19894;48.452;11.494;2022-10-17T16:44:31;20.30;64.60
33564;DHT22;19894;48.452;11.494;2022-10-17T16:46:57;20.20;64.50
33564;DHT22;19894;48.452;11.494;2022-10-17T16:49:22;20.20;64.50
33564;DHT22;19894;48.452;11.494;2022-10-17T16:51:48;20.30;64.50
33564;DHT22;19894;48.452;11.494;2022-10-17T16:54:13;20.20;64.20
33564;DHT22;19894;48.452;11.494;2022-10-17T16:56:39;20.30;64.40
33564;DHT22;19894;48.452;11.494;2022-10-17T16:59:07;20.20;64.30
33564;DHT22;19894;48.452;11.494;2022-10-17T17:01:33;20.30;64.40
33564;DHT22;19894;48.452;11.494;2022-10-17T17:03:59;20.20;64.20
33564;DHT22;19894;48.452;11.494;2022-10-17T17:06:27;20.20;64.40
33564;DHT22;19894;48.452;11.494;2022-10-17T17:08:54;20.30;64.50
33564;DHT22;19894;48.452;11.494;2022-10-17T17:11:21;20.30;64.50
33564;DHT22;19894;48.452;11.494;2022-10-17T17:13:47;20.30;64.40
33564;DHT22;19894;48.452;11.494;2022-10-17T17:16:16;20.30;64.30
33564;DHT22;19894;48.452;11.494;2022-10-17T17:18:42;20.30;64.30